createdAt,value
2018-06-10T00:01:07.565Z,22.29
2018-06-10T00:03:36.026Z,21.92
2018-06-10T00:06:04.485Z,21.69
2018-06-10T00:08:32.893Z,21.73
2018-06-10T00:11:01.350Z,21.84
2018-06-10T00:13:30.279Z,21.94
2018-06-10T00:15:58.677Z,21.98
2018-06-10T00:18:27.138Z,22.00
2018-06-10T00:20:55.643Z,22.06
2018-06-10T00:23:24.117Z,22.11
2018-06-10T00:25:52.601Z,22.09
2018-06-10T00:28:26.331Z,22.14
2018-06-10T00:30:54.837Z,22.11
2018-06-10T00:33:23.270Z,22.11
2018-06-10T00:35:51.735Z,22.11
2018-06-10T00:38:20.120Z,22.05
2018-06-10T00:40:48.572Z,21.99
2018-06-10T00:43:17.023Z,21.96
2018-06-10T00:45:45.425Z,21.90
2018-06-10T00:48:13.928Z,21.85
2018-06-10T00:50:42.402Z,21.80
2018-06-10T00:53:10.780Z,21.79
2018-06-10T00:55:39.199Z,21.78
2018-06-10T00:58:07.606Z,21.69
2018-06-10T01:00:36.315Z,21.59
2018-06-10T01:03:04.807Z,21.48
2018-06-10T01:05:33.342Z,21.50
2018-06-10T01:08:01.792Z,21.36
2018-06-10T01:10:30.250Z,21.42
2018-06-10T01:12:59.081Z,21.00
2018-06-10T01:15:27.503Z,21.34
2018-06-10T01:17:55.912Z,21.26
2018-06-10T01:20:24.377Z,21.29
2018-06-10T01:22:52.880Z,21.36
2018-06-10T01:25:21.292Z,21.45
2018-06-10T01:27:49.950Z,21.47
2018-06-10T01:30:18.399Z,21.49
2018-06-10T01:32:46.956Z,21.50
2018-06-10T01:35:15.394Z,21.53
2018-06-10T01:37:43.818Z,21.55
2018-06-10T01:40:12.241Z,21.56
2018-06-10T01:42:40.659Z,21.38
2018-06-10T01:45:09.111Z,21.23
2018-06-10T01:47:37.584Z,21.31
2018-06-10T01:50:06.025Z,21.33
2018-06-10T01:52:34.419Z,21.36
2018-06-10T01:55:02.960Z,21.35
2018-06-10T01:57:31.421Z,21.30
2018-06-10T01:59:59.902Z,21.29
2018-06-10T02:02:28.328Z,21.34
2018-06-10T02:04:56.906Z,21.36
2018-06-10T02:07:25.302Z,21.36
2018-06-10T02:09:53.743Z,21.38
2018-06-10T02:12:22.153Z,21.39
2018-06-10T02:14:50.898Z,21.38
2018-06-10T02:17:19.895Z,21.39
2018-06-10T02:19:48.348Z,21.36
2018-06-10T02:22:16.746Z,21.35
2018-06-10T02:24:45.156Z,21.34
2018-06-10T02:27:13.568Z,21.30
2018-06-10T02:29:41.971Z,21.25
2018-06-10T02:32:10.396Z,21.23
2018-06-10T02:34:38.851Z,21.22
2018-06-10T02:37:13.830Z,21.21
2018-06-10T02:39:42.256Z,21.17
2018-06-10T02:42:10.730Z,21.10
2018-06-10T02:44:39.163Z,21.11
2018-06-10T02:47:07.698Z,21.06
2018-06-10T02:49:36.126Z,20.96
2018-06-10T02:52:04.623Z,20.92
2018-06-10T02:54:33.107Z,20.97
2018-06-10T02:57:01.753Z,20.93
2018-06-10T02:59:30.302Z,20.83
2018-06-10T03:01:58.800Z,20.83
2018-06-10T03:04:27.234Z,20.81
2018-06-10T03:06:55.670Z,20.83
2018-06-10T03:09:24.227Z,20.71
2018-06-10T03:11:52.890Z,20.80
2018-06-10T03:14:21.395Z,20.81
2018-06-10T03:16:49.958Z,20.80
2018-06-10T03:19:18.389Z,20.81
2018-06-10T03:21:46.839Z,20.79
2018-06-10T03:24:15.383Z,20.72
2018-06-10T03:26:43.781Z,20.72
2018-06-10T03:29:12.299Z,20.70
2018-06-10T03:31:40.700Z,20.74
2018-06-10T03:34:09.201Z,20.71
2018-06-10T03:36:38.020Z,20.67
2018-06-10T03:39:08.132Z,20.59
2018-06-10T03:41:36.733Z,20.36
2018-06-10T03:44:05.165Z,20.49
2018-06-10T03:46:33.604Z,20.53
2018-06-10T03:49:02.004Z,20.57
2018-06-10T03:51:30.461Z,20.59
2018-06-10T03:53:58.999Z,20.61
2018-06-10T03:56:27.781Z,20.61
2018-06-10T03:58:56.196Z,20.63
2018-06-10T04:01:24.619Z,20.61
2018-06-10T04:03:53.044Z,20.61
2018-06-10T04:06:21.521Z,20.65
2018-06-10T04:08:49.938Z,20.69
2018-06-10T04:11:18.367Z,20.68
2018-06-10T04:13:46.776Z,20.75
2018-06-10T04:16:15.371Z,20.73
2018-06-10T04:18:43.829Z,20.75
2018-06-10T04:21:12.333Z,20.76
2018-06-10T04:23:40.798Z,20.78
2018-06-10T04:26:09.280Z,20.58
2018-06-10T04:28:37.708Z,20.66
2018-06-10T04:31:06.444Z,20.80
2018-06-10T04:33:36.118Z,20.86
2018-06-10T04:36:04.659Z,20.73
2018-06-10T04:38:33.121Z,20.83
2018-06-10T04:41:01.544Z,20.95
2018-06-10T04:43:30.057Z,20.99
2018-06-10T04:45:58.468Z,20.98
2018-06-10T04:48:26.995Z,20.89
2018-06-10T04:50:55.469Z,20.98
2018-06-10T04:53:23.887Z,21.06
2018-06-10T04:55:52.403Z,21.08
2018-06-10T04:58:20.844Z,21.10
2018-06-10T05:00:49.253Z,21.09
2018-06-10T05:03:17.755Z,21.08
2018-06-10T05:05:46.239Z,21.01
2018-06-10T05:08:14.650Z,21.07
2018-06-10T05:10:43.090Z,21.06
2018-06-10T05:13:11.540Z,21.07
2018-06-10T05:15:39.988Z,21.12
2018-06-10T05:18:08.491Z,21.29
2018-06-10T05:20:36.972Z,21.26
2018-06-10T05:23:05.421Z,21.34
2018-06-10T05:25:33.890Z,21.34
2018-06-10T05:28:02.380Z,21.31
2018-06-10T05:30:30.813Z,21.26
2018-06-10T05:32:59.559Z,21.14
2018-06-10T05:35:28.021Z,21.04
2018-06-10T05:37:56.485Z,21.02
2018-06-10T05:40:25.011Z,21.05
2018-06-10T05:42:53.787Z,21.11
2018-06-10T05:45:22.365Z,21.21
2018-06-10T05:47:50.842Z,21.22
2018-06-10T05:50:19.290Z,21.30
2018-06-10T05:52:47.725Z,21.37
2018-06-10T05:55:16.390Z,21.44
2018-06-10T05:57:44.840Z,21.56
2018-06-10T06:00:13.337Z,21.66
2018-06-10T06:02:41.786Z,21.88
2018-06-10T06:05:10.196Z,22.01
2018-06-10T06:07:38.698Z,22.10
2018-06-10T06:10:07.254Z,22.03
2018-06-10T06:12:36.147Z,22.18
2018-06-10T06:15:04.593Z,22.25
2018-06-10T06:17:33.046Z,22.30
2018-06-10T06:20:01.495Z,22.51
2018-06-10T06:22:29.969Z,22.49
2018-06-10T06:24:59.287Z,22.55
2018-06-10T06:27:27.788Z,22.51
2018-06-10T06:29:56.868Z,22.41
2018-06-10T06:32:25.754Z,22.57
2018-06-10T06:34:54.532Z,22.64
2018-06-10T06:37:23.316Z,22.66
2018-06-10T06:39:51.811Z,22.80
2018-06-10T06:42:20.355Z,22.89
2018-06-10T06:44:48.888Z,23.03
2018-06-10T06:47:17.310Z,23.16
2018-06-10T06:49:45.975Z,23.28
2018-06-10T06:52:15.080Z,23.37
2018-06-10T06:54:43.967Z,23.36
2018-06-10T06:57:13.560Z,23.45
2018-06-10T06:59:42.509Z,23.61
2018-06-10T07:02:11.094Z,23.59
2018-06-10T07:04:39.970Z,23.69
2018-06-10T07:07:08.551Z,23.68
2018-06-10T07:09:43.745Z,23.76
2018-06-10T07:12:12.232Z,23.89
2018-06-10T07:14:40.769Z,24.01
2018-06-10T07:17:09.911Z,24.10
2018-06-10T07:19:38.346Z,24.19
2018-06-10T07:22:06.843Z,24.19
2018-06-10T07:24:35.609Z,24.38
2018-06-10T07:27:05.086Z,24.44
2018-06-10T07:29:34.080Z,24.60
2018-06-10T07:32:03.013Z,24.67
2018-06-10T07:34:32.188Z,24.74
2018-06-10T07:37:00.814Z,24.84
2018-06-10T07:39:30.034Z,24.90
2018-06-10T07:41:58.526Z,24.97
2018-06-10T07:44:27.157Z,24.83
2018-06-10T07:46:56.178Z,24.84
2018-06-10T07:49:25.198Z,24.91
2018-06-10T07:51:54.487Z,25.01
2018-06-10T07:54:23.090Z,25.13
2018-06-10T07:56:51.625Z,25.17
2018-06-10T07:59:20.465Z,24.97
2018-06-10T08:01:50.205Z,25.14
2018-06-10T08:04:19.606Z,25.16
2018-06-10T08:06:48.101Z,25.42
2018-06-10T08:09:16.577Z,25.48
2018-06-10T08:11:44.999Z,25.65
2018-06-10T08:14:13.459Z,25.80
2018-06-10T08:16:42.007Z,25.89
2018-06-10T08:19:10.502Z,25.89
2018-06-10T08:21:38.987Z,26.17
2018-06-10T08:24:07.478Z,26.17
2018-06-10T08:26:36.706Z,26.32
2018-06-10T08:29:05.390Z,26.34
2018-06-10T08:31:34.007Z,26.28
2018-06-10T08:34:03.366Z,26.35
2018-06-10T08:36:31.969Z,26.45
2018-06-10T08:39:00.433Z,26.15
2018-06-10T08:41:28.950Z,26.18
2018-06-10T08:43:58.534Z,26.25
2018-06-10T08:46:27.534Z,26.40
2018-06-10T08:48:56.030Z,26.59
2018-06-10T08:51:24.927Z,26.60
2018-06-10T08:53:53.440Z,26.79
2018-06-10T08:56:22.221Z,26.89
2018-06-10T08:58:50.663Z,27.16
2018-06-10T09:01:19.195Z,27.36
2018-06-10T09:03:47.653Z,27.45
2018-06-10T09:06:16.251Z,27.17
2018-06-10T09:08:44.797Z,27.03
2018-06-10T09:11:14.113Z,27.24
2018-06-10T09:13:42.679Z,27.06
2018-06-10T09:16:11.168Z,27.25
2018-06-10T09:18:39.836Z,27.63
2018-06-10T09:21:08.587Z,27.95
2018-06-10T09:23:37.105Z,28.15
2018-06-10T09:26:05.642Z,28.21
2018-06-10T09:28:34.101Z,28.18
2018-06-10T09:31:02.581Z,28.12
2018-06-10T09:33:31.070Z,27.98
2018-06-10T09:35:59.560Z,27.62
2018-06-10T09:38:28.095Z,27.51
2018-06-10T09:40:57.261Z,27.55
2018-06-10T09:43:25.837Z,27.49
2018-06-10T09:45:54.928Z,27.83
2018-06-10T09:48:23.412Z,28.01
2018-06-10T09:50:52.031Z,27.99
2018-06-10T09:53:20.737Z,28.03
2018-06-10T09:55:49.552Z,28.07
2018-06-10T09:58:18.510Z,28.48
2018-06-10T10:00:49.132Z,28.40
2018-06-10T10:03:18.364Z,28.42
2018-06-10T10:05:47.109Z,28.41
2018-06-10T10:08:15.592Z,28.37
2018-06-10T10:10:44.152Z,28.44
2018-06-10T10:13:12.741Z,28.72
2018-06-10T10:15:41.351Z,28.84
2018-06-10T10:18:09.904Z,28.93
2018-06-10T10:20:38.433Z,28.93
2018-06-10T10:23:07.275Z,28.78
2018-06-10T10:25:35.782Z,28.81
2018-06-10T10:28:04.468Z,28.80
2018-06-10T10:30:33.379Z,28.97
2018-06-10T10:33:01.993Z,29.29
2018-06-10T10:35:30.730Z,29.50
2018-06-10T10:37:59.223Z,29.53
2018-06-10T10:40:27.762Z,29.50
2018-06-10T10:42:56.297Z,29.70
2018-06-10T10:45:25.138Z,29.58
2018-06-10T10:47:53.637Z,29.73
2018-06-10T10:50:22.246Z,29.77
2018-06-10T10:52:52.282Z,29.69
2018-06-10T10:55:20.716Z,29.65
2018-06-10T10:57:49.182Z,29.39
2018-06-10T11:00:17.761Z,29.43
2018-06-10T11:02:46.294Z,29.57
2018-06-10T11:05:14.887Z,29.50
2018-06-10T11:07:43.458Z,29.13
2018-06-10T11:10:12.083Z,29.29
2018-06-10T11:12:40.565Z,28.96
2018-06-10T11:15:09.175Z,28.90
2018-06-10T11:17:37.869Z,28.42
2018-06-10T11:20:06.524Z,28.18
2018-06-10T11:22:34.940Z,28.32
2018-06-10T11:25:04.210Z,28.44
2018-06-10T11:27:34.279Z,28.44
2018-06-10T11:30:02.910Z,28.66
2018-06-10T11:32:31.394Z,28.98
2018-06-10T11:34:59.855Z,29.10
2018-06-10T11:37:28.368Z,29.16
2018-06-10T11:39:56.773Z,29.21
2018-06-10T11:42:25.276Z,29.42
2018-06-10T11:44:53.658Z,29.47
2018-06-10T11:47:22.203Z,29.42
2018-06-10T11:49:50.665Z,29.57
2018-06-10T11:52:19.123Z,29.61
2018-06-10T11:54:47.582Z,29.70
2018-06-10T11:57:16.107Z,29.46
2018-06-10T11:59:44.566Z,29.54
2018-06-10T12:02:13.170Z,29.53
2018-06-10T12:04:41.679Z,29.46
2018-06-10T12:07:10.876Z,29.53
2018-06-10T12:09:39.426Z,29.70
2018-06-10T12:12:08.998Z,29.85
2018-06-10T12:14:37.655Z,29.95
2018-06-10T12:17:07.231Z,29.92
2018-06-10T12:19:35.754Z,29.98
2018-06-10T12:22:04.356Z,30.03
2018-06-10T12:24:33.666Z,30.18
2018-06-10T12:27:06.401Z,30.34
2018-06-10T12:29:34.969Z,30.26
2018-06-10T12:32:03.889Z,30.32
2018-06-10T12:34:32.438Z,30.36
2018-06-10T12:37:01.203Z,30.38
2018-06-10T12:39:29.813Z,30.47
2018-06-10T12:41:58.286Z,30.69
2018-06-10T12:44:26.759Z,30.67
2018-06-10T12:46:55.279Z,31.08
2018-06-10T12:49:23.805Z,30.78
2018-06-10T12:51:52.242Z,30.85
2018-06-10T12:54:20.699Z,31.01
2018-06-10T12:56:49.107Z,31.01
2018-06-10T12:59:17.630Z,31.11
2018-06-10T13:01:46.088Z,32.63
2018-06-10T13:04:14.976Z,32.68
2018-06-10T13:06:43.393Z,34.31
2018-06-10T13:09:11.877Z,34.90
2018-06-10T13:11:40.409Z,35.85
2018-06-10T13:14:09.477Z,36.73
2018-06-10T13:16:38.545Z,36.81
2018-06-10T13:19:07.611Z,36.45
2018-06-10T13:21:36.388Z,36.47
2018-06-10T13:24:05.646Z,35.55
2018-06-10T13:26:34.622Z,36.66
2018-06-10T13:29:03.513Z,36.96
2018-06-10T13:31:32.485Z,37.49
2018-06-10T13:34:02.576Z,36.86
2018-06-10T13:36:31.700Z,36.91
2018-06-10T13:39:00.476Z,37.46
2018-06-10T13:41:29.410Z,36.22
2018-06-10T13:43:58.358Z,35.56
2018-06-10T13:46:28.230Z,36.43
2018-06-10T13:48:58.052Z,36.73
2018-06-10T13:51:26.550Z,37.13
2018-06-10T13:53:55.100Z,36.45
2018-06-10T13:56:23.559Z,37.21
2018-06-10T13:58:52.073Z,37.70
2018-06-10T14:01:20.649Z,37.29
2018-06-10T14:03:49.126Z,36.65
2018-06-10T14:06:17.639Z,35.81
2018-06-10T14:08:46.102Z,34.99
2018-06-10T14:11:14.579Z,34.55
2018-06-10T14:13:43.055Z,34.34
2018-06-10T14:16:12.245Z,34.14
2018-06-10T14:18:40.793Z,34.11
2018-06-10T14:21:09.317Z,33.93
2018-06-10T14:23:37.906Z,33.42
2018-06-10T14:26:06.338Z,33.23
2018-06-10T14:28:34.807Z,32.90
2018-06-10T14:31:03.303Z,32.66
2018-06-10T14:33:31.875Z,32.31
2018-06-10T14:36:00.411Z,32.53
2018-06-10T14:38:29.050Z,32.37
2018-06-10T14:40:57.549Z,32.12
2018-06-10T14:43:26.422Z,32.13
2018-06-10T14:45:54.985Z,32.06
2018-06-10T14:48:23.466Z,32.31
2018-06-10T14:50:52.026Z,32.45
2018-06-10T14:53:20.601Z,32.19
2018-06-10T14:55:49.081Z,32.32
2018-06-10T14:58:17.559Z,32.73
2018-06-10T15:00:46.092Z,32.47
2018-06-10T15:03:14.656Z,32.70
2018-06-10T15:05:43.110Z,32.72
2018-06-10T15:08:11.597Z,32.26
2018-06-10T15:10:40.095Z,32.31
2018-06-10T15:13:08.584Z,32.38
2018-06-10T15:15:37.415Z,32.09
2018-06-10T15:18:06.433Z,32.49
2018-06-10T15:20:35.194Z,31.20
2018-06-10T15:23:04.015Z,31.71
2018-06-10T15:25:32.602Z,31.71
2018-06-10T15:28:01.719Z,31.91
2018-06-10T15:30:30.333Z,31.90
2018-06-10T15:32:59.284Z,31.58
2018-06-10T15:35:28.432Z,31.34
2018-06-10T15:37:58.515Z,31.60
2018-06-10T15:40:29.925Z,31.36
2018-06-10T15:42:59.197Z,31.11
2018-06-10T15:45:28.321Z,31.24
2018-06-10T15:47:57.026Z,31.33
2018-06-10T15:50:25.475Z,31.31
2018-06-10T15:52:54.197Z,31.13
2018-06-10T15:55:23.801Z,30.51
2018-06-10T15:57:52.362Z,30.12
2018-06-10T16:00:20.876Z,29.54
2018-06-10T16:02:49.352Z,28.77
2018-06-10T16:05:18.048Z,28.26
2018-06-10T16:07:46.616Z,27.71
2018-06-10T16:10:15.189Z,27.08
2018-06-10T16:12:43.744Z,26.90
2018-06-10T16:15:12.248Z,26.61
2018-06-10T16:17:41.133Z,26.69
2018-06-10T16:20:09.675Z,26.55
2018-06-10T16:22:38.748Z,26.62
2018-06-10T16:25:07.228Z,26.85
2018-06-10T16:27:35.729Z,26.85
2018-06-10T16:30:05.010Z,27.12
2018-06-10T16:32:33.569Z,27.22
2018-06-10T16:35:02.083Z,27.26
2018-06-10T16:37:30.547Z,27.33
2018-06-10T16:39:59.024Z,27.43
2018-06-10T16:42:28.689Z,27.34
2018-06-10T16:44:57.780Z,27.10
2018-06-10T16:47:26.357Z,27.10
2018-06-10T16:49:55.021Z,27.07
2018-06-10T16:52:23.639Z,26.84
2018-06-10T16:54:52.156Z,26.86
2018-06-10T16:57:20.921Z,26.99
2018-06-10T16:59:49.369Z,26.90
2018-06-10T17:02:18.944Z,26.69
2018-06-10T17:04:47.526Z,26.64
2018-06-10T17:07:16.126Z,26.80
2018-06-10T17:09:44.608Z,26.86
2018-06-10T17:12:13.173Z,26.82
2018-06-10T17:14:41.666Z,26.82
2018-06-10T17:17:10.679Z,26.78
2018-06-10T17:19:39.526Z,26.71
2018-06-10T17:22:08.122Z,26.50
2018-06-10T17:24:37.543Z,26.43
2018-06-10T17:27:06.100Z,26.52
2018-06-10T17:29:35.279Z,26.64
2018-06-10T17:32:04.019Z,26.62
2018-06-10T17:34:33.580Z,26.64
2018-06-10T17:37:02.128Z,26.61
2018-06-10T17:39:33.306Z,26.28
2018-06-10T17:42:01.840Z,26.29
2018-06-10T17:44:35.504Z,26.44
2018-06-10T17:47:04.260Z,26.37
2018-06-10T17:49:33.718Z,26.38
2018-06-10T17:52:02.780Z,26.26
2018-06-10T17:54:34.197Z,26.21
2018-06-10T17:57:13.716Z,26.23
2018-06-10T17:59:44.933Z,26.20
2018-06-10T18:02:13.523Z,25.96
2018-06-10T18:04:42.346Z,26.02
2018-06-10T18:07:11.242Z,26.07
2018-06-10T18:09:39.879Z,26.10
2018-06-10T18:12:08.411Z,25.97
2018-06-10T18:14:36.980Z,25.88
2018-06-10T18:17:06.175Z,25.83
2018-06-10T18:19:35.651Z,25.72
2018-06-10T18:22:04.449Z,25.68
2018-06-10T18:24:33.590Z,25.59
2018-06-10T18:27:02.564Z,25.58
2018-06-10T18:29:31.709Z,25.65
2018-06-10T18:32:01.134Z,25.46
2018-06-10T18:34:30.331Z,25.20
2018-06-10T18:36:58.976Z,25.25
2018-06-10T18:39:27.847Z,25.29
2018-06-10T18:41:56.388Z,25.32
2018-06-10T18:44:24.816Z,25.18
2018-06-10T18:46:53.352Z,25.29
2018-06-10T18:49:22.656Z,25.32
2018-06-10T18:51:51.343Z,25.43
2018-06-10T18:54:19.935Z,25.44
2018-06-10T18:56:48.732Z,25.32
2018-06-10T18:59:17.279Z,25.22
2018-06-10T19:01:45.991Z,25.20
2018-06-10T19:04:14.511Z,25.11
2018-06-10T19:06:43.369Z,25.09
2018-06-10T19:09:12.834Z,24.70
2018-06-10T19:11:41.366Z,24.69
2018-06-10T19:14:10.004Z,24.75
2018-06-10T19:16:39.301Z,24.65
2018-06-10T19:19:08.049Z,24.77
2018-06-10T19:21:36.612Z,24.86
2018-06-10T19:24:05.799Z,24.83
2018-06-10T19:26:34.947Z,24.90
2018-06-10T19:29:03.455Z,24.74
2018-06-10T19:31:32.008Z,24.26
2018-06-10T19:34:00.471Z,24.33
2018-06-10T19:36:28.901Z,24.35
2018-06-10T19:38:58.198Z,24.41
2018-06-10T19:41:26.998Z,24.47
2018-06-10T19:43:55.799Z,24.52
2018-06-10T19:46:24.254Z,24.59
2018-06-10T19:48:52.923Z,24.65
2018-06-10T19:51:21.487Z,24.63
2018-06-10T19:53:50.076Z,24.60
2018-06-10T19:56:18.606Z,24.52
2018-06-10T19:58:47.043Z,24.43
2018-06-10T20:01:15.727Z,24.35
2018-06-10T20:03:44.279Z,24.43
2018-06-10T20:06:12.839Z,23.98
2018-06-10T20:08:41.405Z,24.44
2018-06-10T20:11:10.525Z,24.45
2018-06-10T20:13:38.991Z,24.47
2018-06-10T20:16:07.513Z,24.47
2018-06-10T20:18:36.005Z,24.56
2018-06-10T20:21:04.499Z,24.40
2018-06-10T20:23:33.163Z,24.21
2018-06-10T20:26:01.694Z,24.03
2018-06-10T20:28:30.151Z,23.97
2018-06-10T20:30:58.700Z,23.88
2018-06-10T20:33:27.171Z,23.80
2018-06-10T20:35:55.821Z,23.82
2018-06-10T20:38:24.342Z,23.82
2018-06-10T20:40:52.878Z,23.83
2018-06-10T20:43:21.336Z,23.79
2018-06-10T20:45:49.787Z,23.87
2018-06-10T20:48:18.386Z,23.89
2018-06-10T20:50:46.845Z,23.88
2018-06-10T20:53:20.446Z,23.84
2018-06-10T20:55:48.925Z,23.82
2018-06-10T20:58:17.420Z,23.84
2018-06-10T21:00:45.888Z,23.76
2018-06-10T21:03:14.312Z,23.77
2018-06-10T21:05:42.805Z,23.77
2018-06-10T21:08:11.320Z,23.69
2018-06-10T21:10:39.785Z,23.67
2018-06-10T21:13:08.385Z,23.61
2018-06-10T21:15:37.372Z,23.55
2018-06-10T21:18:05.861Z,23.55
2018-06-10T21:20:34.305Z,23.52
2018-06-10T21:23:02.851Z,23.50
2018-06-10T21:25:31.430Z,23.39
2018-06-10T21:28:00.004Z,23.26
2018-06-10T21:30:28.452Z,23.48
2018-06-10T21:32:56.872Z,23.48
2018-06-10T21:35:25.366Z,23.44
2018-06-10T21:37:53.935Z,23.28
2018-06-10T21:40:22.358Z,23.26
2018-06-10T21:42:50.766Z,23.26
2018-06-10T21:45:19.245Z,23.30
2018-06-10T21:47:49.002Z,23.24
2018-06-10T21:50:17.433Z,23.10
2018-06-10T21:52:45.970Z,23.04
2018-06-10T21:55:14.493Z,23.06
2018-06-10T21:57:46.186Z,23.09
2018-06-10T22:00:25.697Z,23.08
2018-06-10T22:02:54.624Z,22.97
2018-06-10T22:05:23.266Z,22.97
2018-06-10T22:07:51.796Z,22.82
2018-06-10T22:10:20.216Z,22.71
2018-06-10T22:12:48.774Z,22.57
2018-06-10T22:15:17.180Z,22.53
2018-06-10T22:17:49.711Z,22.48
2018-06-10T22:20:18.255Z,22.28
2018-06-10T22:22:46.810Z,22.33
2018-06-10T22:25:15.331Z,22.36
2018-06-10T22:27:43.819Z,22.35
2018-06-10T22:30:12.434Z,22.37
2018-06-10T22:32:41.090Z,22.35
2018-06-10T22:35:09.598Z,22.33
2018-06-10T22:37:38.042Z,22.38
2018-06-10T22:40:07.258Z,22.41
2018-06-10T22:42:35.681Z,22.44
2018-06-10T22:45:04.530Z,22.31
2018-06-10T22:47:34.995Z,22.22
2018-06-10T22:50:04.259Z,22.38
2018-06-10T22:52:32.705Z,22.44
2018-06-10T22:55:01.140Z,22.46
2018-06-10T22:57:29.581Z,22.14
2018-06-10T22:59:58.074Z,22.16
2018-06-10T23:02:26.549Z,22.23
2018-06-10T23:04:54.981Z,22.35
2018-06-10T23:07:23.530Z,22.36
2018-06-10T23:09:51.971Z,22.31
2018-06-10T23:12:20.409Z,22.33
2018-06-10T23:14:48.805Z,22.19
2018-06-10T23:17:17.291Z,22.17
2018-06-10T23:19:45.789Z,21.97
2018-06-10T23:22:18.602Z,22.12
2018-06-10T23:24:47.010Z,22.13
2018-06-10T23:27:15.512Z,22.08
2018-06-10T23:29:44.037Z,22.05
2018-06-10T23:32:12.598Z,22.12
2018-06-10T23:34:41.093Z,21.72
2018-06-10T23:37:09.579Z,21.82
2018-06-10T23:39:38.015Z,21.91
2018-06-10T23:42:06.433Z,22.00
2018-06-10T23:44:34.832Z,22.09
2018-06-10T23:47:04.216Z,22.08
2018-06-10T23:49:32.655Z,22.02
2018-06-10T23:52:01.030Z,22.07
2018-06-10T23:54:30.354Z,22.07
2018-06-10T23:56:58.799Z,22.11
2018-06-10T23:59:27.224Z,22.15
